createdAt,value
2022-10-19T00:07:39.583Z,99
2022-10-19T00:17:40.388Z,99
2022-10-19T00:27:41.035Z,100
2022-10-19T00:37:41.808Z,100
2022-10-19T00:47:41.977Z,100
2022-10-19T01:07:42.838Z,99
2022-10-19T01:17:43.018Z,99
2022-10-19T01:27:44.036Z,99
2022-10-19T01:37:44.682Z,100
2022-10-19T01:47:45.289Z,100
2022-10-19T01:57:46.048Z,100
2022-10-19T02:07:46.896Z,100
2022-10-19T02:17:47.729Z,100
2022-10-19T02:27:48.127Z,100
2022-10-19T02:57:49.294Z,100
2022-10-19T03:07:49.622Z,100
2022-10-19T03:17:49.817Z,100
2022-10-19T03:27:50.464Z,100
2022-10-19T03:37:50.963Z,100
2022-10-19T03:47:51.743Z,100
2022-10-19T03:57:51.943Z,100
2022-10-19T04:07:52.040Z,100
2022-10-19T04:17:52.427Z,100
2022-10-19T04:27:52.688Z,100
2022-10-19T04:37:53.068Z,100
2022-10-19T04:47:53.814Z,100
2022-10-19T04:57:54.513Z,100
2022-10-19T05:07:55.496Z,100
2022-10-19T05:17:56.039Z,100
2022-10-19T05:27:56.957Z,100
2022-10-19T05:37:57.406Z,100
2022-10-19T05:47:57.880Z,100
2022-10-19T05:57:58.760Z,100
2022-10-19T06:07:58.875Z,100
2022-10-19T06:17:59.590Z,100
2022-10-19T06:28:00.336Z,100
2022-10-19T06:38:00.723Z,100
2022-10-19T06:48:02.370Z,100
2022-10-19T06:58:01.722Z,100
2022-10-19T07:08:01.962Z,100
2022-10-19T07:18:02.002Z,100
2022-10-19T07:28:02.759Z,100
2022-10-19T07:38:03.030Z,100
2022-10-19T07:48:03.914Z,100
2022-10-19T08:08:05.117Z,98
2022-10-19T08:18:06.169Z,98
2022-10-19T08:48:07.778Z,95
2022-10-19T08:58:08.649Z,94
2022-10-19T09:08:10.087Z,92
2022-10-19T09:18:09.694Z,90
2022-10-19T09:28:10.538Z,89
2022-10-19T09:38:11.468Z,88
2022-10-19T09:58:12.203Z,84
2022-10-19T10:18:12.726Z,77
2022-10-19T10:28:13.466Z,76
2022-10-19T10:38:14.515Z,76
2022-10-19T11:28:17.386Z,75
2022-10-19T11:38:20.558Z,75
2022-10-19T11:48:18.939Z,74
2022-10-19T11:58:19.079Z,72
2022-10-19T12:28:21.651Z,71
2022-10-19T12:38:22.048Z,72
2022-10-19T12:48:22.840Z,72
2022-10-19T13:28:24.372Z,71
2022-10-19T13:38:25.405Z,72
2022-10-19T13:58:26.639Z,72
2022-10-19T14:08:27.518Z,73
2022-10-19T14:18:28.248Z,73
2022-10-19T14:28:28.319Z,73
2022-10-19T14:48:29.415Z,74
2022-10-19T14:58:29.977Z,75
2022-10-19T15:28:30.526Z,76
2022-10-19T15:38:30.883Z,77
2022-10-19T15:48:31.147Z,78
2022-10-19T16:18:32.635Z,80
2022-10-19T16:38:32.842Z,82
2022-10-19T16:48:33.400Z,83
2022-10-19T17:08:44.365Z,84
2022-10-19T17:38:35.847Z,85
2022-10-19T18:48:39.013Z,89
2022-10-19T18:58:39.455Z,89
2022-10-19T19:08:40.349Z,90
2022-10-19T19:18:40.526Z,90
2022-10-19T19:28:41.446Z,91
2022-10-19T19:38:41.042Z,92
2022-10-19T19:48:42.128Z,92
2022-10-19T19:58:42.201Z,93
2022-10-19T20:01:20.654Z,93
2022-10-19T20:08:50.821Z,93
2022-10-19T20:18:50.932Z,94
2022-10-19T20:28:51.032Z,94
2022-10-19T20:58:53.433Z,95
2022-10-19T21:08:54.445Z,95
2022-10-19T22:38:59.070Z,96
2022-10-19T22:59:00.613Z,96
2022-10-19T23:09:00.738Z,96
2022-10-19T23:19:01.368Z,96
2022-10-19T23:29:01.825Z,96
2022-10-19T23:39:02.567Z,96
2022-10-19T23:49:03.378Z,96
2022-10-19T23:59:03.906Z,97
